Time;durP1;ratioP1;P1;durP2;ratioP2;P2;SDS_P1;SDS_P2;PMS_P1;PMS_P2;Temp;Humidity;BMP_temperature;BMP_pressure;BME280_temperature;BME280_humidity;BME280_pressure;Samples;Min_cycle;Max_cycle;Signal;HPM_P1;HPM_P2
2021/06/22 00:00:27;;;;;;;9.10;6.22;;;12.50;99.90;;;;;;4993932;28;20121;-83
2021/06/22 00:02:55;;;;;;;9.80;6.28;;;12.60;99.90;;;;;;4994558;28;20129;-84
2021/06/22 00:05:23;;;;;;;9.85;6.05;;;12.60;99.90;;;;;;4998747;28;20104;-84
2021/06/22 00:07:53;;;;;;;8.63;5.95;;;12.50;99.90;;;;;;4999786;28;20046;-84
2021/06/22 00:10:24;;;;;;;8.32;5.93;;;12.40;99.90;;;;;;4994211;28;20046;-84
2021/06/22 00:12:52;;;;;;;9.80;6.35;;;12.40;99.90;;;;;;5002199;28;20053;-85
2021/06/22 00:15:21;;;;;;;8.35;5.75;;;12.50;99.90;;;;;;5002449;28;20046;-83
2021/06/22 00:17:49;;;;;;;9.15;6.20;;;12.60;99.90;;;;;;5005667;28;20076;-83
2021/06/22 00:20:18;;;;;;;11.07;6.65;;;12.40;99.90;;;;;;5010208;28;20061;-82
2021/06/22 00:22:45;;;;;;;11.10;7.07;;;12.40;99.90;;;;;;5030029;28;20030;-84
2021/06/22 00:25:14;;;;;;;12.05;7.53;;;12.30;99.90;;;;;;4989392;28;20812;-82
2021/06/22 00:27:41;;;;;;;11.60;7.05;;;12.40;99.90;;;;;;5018340;28;20050;-84
2021/06/22 00:30:10;;;;;;;12.13;7.22;;;12.30;99.90;;;;;;5021921;28;20038;-83
2021/06/22 00:32:37;;;;;;;11.18;7.35;;;12.40;99.90;;;;;;4976681;28;20085;-82
2021/06/22 00:35:05;;;;;;;13.50;8.23;;;12.30;99.90;;;;;;4985714;28;20061;-84
2021/06/22 00:37:32;;;;;;;13.48;8.85;;;12.30;99.90;;;;;;4998090;28;20054;-82
2021/06/22 00:39:59;;;;;;;15.13;9.48;;;12.30;99.90;;;;;;4978825;28;20649;-82
2021/06/22 00:42:27;;;;;;;16.75;10.40;;;12.30;99.90;;;;;;5004144;28;20054;-82
2021/06/22 00:44:57;;;;;;;23.60;12.38;;;12.20;99.90;;;;;;5008029;28;20114;-83
2021/06/22 00:47:27;;;;;;;19.58;12.30;;;12.10;99.90;;;;;;5045749;28;20059;-83
2021/06/22 00:49:55;;;;;;;22.92;13.65;;;12.20;99.90;;;;;;5020671;28;20030;-82
2021/06/22 00:52:25;;;;;;;21.33;12.70;;;12.20;99.90;;;;;;5019485;28;20041;-83
2021/06/22 00:54:54;;;;;;;20.75;11.82;;;12.30;99.90;;;;;;5008521;28;20051;-83
2021/06/22 00:57:21;;;;;;;27.48;12.63;;;12.30;99.90;;;;;;5014906;28;20061;-83
2021/06/22 00:59:51;;;;;;;23.90;12.68;;;12.30;99.90;;;;;;4999007;28;20053;-83
2021/06/22 01:02:18;;;;;;;24.88;12.40;;;12.40;99.90;;;;;;5012597;28;20262;-81
2021/06/22 01:04:49;;;;;;;20.90;12.38;;;12.30;99.90;;;;;;4980741;28;20490;-81
2021/06/22 01:07:33;;;;;;;29.00;14.98;;;12.30;99.90;;;;;;4987797;28;20101;-81
2021/06/22 01:10:01;;;;;;;27.48;14.90;;;12.30;99.90;;;;;;5000433;28;20076;-83
2021/06/22 01:12:34;;;;;;;25.95;13.75;;;12.20;99.90;;;;;;4999625;28;20046;-83
2021/06/22 01:15:01;;;;;;;27.38;14.73;;;12.30;99.90;;;;;;5000484;28;20045;-80
2021/06/22 01:17:28;;;;;;;24.00;14.18;;;12.40;99.90;;;;;;5000967;28;20049;-80
2021/06/22 01:19:56;;;;;;;28.50;16.58;;;12.20;99.90;;;;;;5002145;28;20080;-81
2021/06/22 01:22:33;;;;;;;27.80;15.60;;;12.20;99.90;;;;;;5002176;28;20045;-82
2021/06/22 01:25:03;;;;;;;25.33;15.40;;;12.20;99.90;;;;;;5012437;28;20046;-81
2021/06/22 01:27:31;;;;;;;30.50;16.05;;;12.30;99.90;;;;;;5031279;28;20053;-81
2021/06/22 01:30:01;;;;;;;26.05;14.93;;;12.30;99.90;;;;;;5013189;28;20046;-81
2021/06/22 01:32:59;;;;;;;28.25;15.18;;;12.40;99.90;;;;;;4997583;28;20311;-82
2021/06/22 01:35:29;;;;;;;24.30;13.68;;;12.40;99.90;;;;;;5031551;28;20054;-81
2021/06/22 01:38:06;;;;;;;24.08;13.60;;;12.30;99.90;;;;;;5017001;28;20042;-79
2021/06/22 01:40:45;;;;;;;28.20;12.70;;;12.30;99.90;;;;;;5010166;28;20085;-82
2021/06/22 01:43:13;;;;;;;21.98;12.57;;;12.30;99.90;;;;;;5024755;28;20048;-81
2021/06/22 01:45:45;;;;;;;26.60;13.65;;;12.40;99.90;;;;;;4999731;28;20102;-85
2021/06/22 01:48:13;;;;;;;19.85;12.52;;;12.30;99.90;;;;;;5043285;28;20182;-83
2021/06/22 01:50:44;;;;;;;27.73;13.85;;;12.30;99.90;;;;;;5005301;28;20048;-85
2021/06/22 01:53:15;;;;;;;25.95;13.32;;;12.40;99.90;;;;;;5016141;28;20609;-84
2021/06/22 01:55:47;;;;;;;23.15;12.65;;;12.50;99.90;;;;;;4997870;28;20064;-81
2021/06/22 01:58:16;;;;;;;22.75;12.95;;;12.50;99.90;;;;;;4997326;28;20190;-82
2021/06/22 02:00:59;;;;;;;29.73;14.50;;;12.30;99.90;;;;;;4995734;28;20050;-83
2021/06/22 02:03:55;;;;;;;25.17;15.80;;;12.20;99.90;;;;;;4990268;28;20061;-82
2021/06/22 02:06:22;;;;;;;26.55;16.33;;;12.20;99.90;;;;;;4988331;28;20046;-81
2021/06/22 02:09:18;;;;;;;;;;;12.20;99.90;;;;;;4969881;28;20050;-83
2021/06/22 02:11:46;;;;;;;29.38;15.93;;;12.30;99.90;;;;;;4976647;28;19926;-81
2021/06/22 02:14:13;;;;;;;29.50;16.70;;;12.20;99.90;;;;;;4992969;28;20057;-82
2021/06/22 02:16:40;;;;;;;28.95;17.50;;;12.10;99.90;;;;;;5014573;28;20057;-82
2021/06/22 02:19:11;;;;;;;28.15;16.02;;;12.10;99.90;;;;;;4980271;28;20052;-81
2021/06/22 02:21:54;;;;;;;30.38;16.50;;;12.20;99.90;;;;;;5006821;28;20089;-83
2021/06/22 02:24:25;;;;;;;30.27;18.33;;;12.20;99.90;;;;;;4991749;28;20446;-82
2021/06/22 02:26:55;;;;;;;28.40;17.23;;;12.30;99.90;;;;;;4995747;28;20053;-80
2021/06/22 02:29:23;;;;;;;28.63;17.05;;;12.20;99.90;;;;;;4995965;28;20117;-83
2021/06/22 02:31:57;;;;;;;32.70;19.92;;;12.10;99.90;;;;;;4992856;28;20540;-82
2021/06/22 02:34:28;;;;;;;34.80;19.95;;;12.10;99.90;;;;;;5023052;28;20061;-82
2021/06/22 02:36:56;;;;;;;32.92;20.15;;;12.20;99.90;;;;;;5002494;28;20136;-82
2021/06/22 02:39:28;;;;;;;33.15;18.83;;;12.20;99.90;;;;;;4992893;28;20060;-82
2021/06/22 02:41:55;;;;;;;30.58;17.85;;;12.20;99.90;;;;;;4995526;28;20050;-84
2021/06/22 02:44:22;;;;;;;33.88;20.13;;;12.20;99.90;;;;;;4992052;28;20564;-81
2021/06/22 02:46:49;;;;;;;29.25;17.58;;;12.20;99.90;;;;;;4977790;28;20096;-81
2021/06/22 02:49:16;;;;;;;30.17;19.15;;;12.20;99.90;;;;;;4995559;28;20092;-83
2021/06/22 02:51:43;;;;;;;35.88;19.15;;;12.20;99.90;;;;;;4988745;28;20132;-83
2021/06/22 02:54:14;;;;;;;37.75;20.75;;;12.10;99.90;;;;;;5001448;28;20057;-83
2021/06/22 02:56:41;;;;;;;45.05;20.50;;;12.30;99.90;;;;;;5005196;28;20050;-83
2021/06/22 02:59:09;;;;;;;31.58;20.33;;;12.30;99.90;;;;;;5013989;28;20061;-81
2021/06/22 03:01:36;;;;;;;34.00;19.92;;;12.30;99.90;;;;;;4994780;28;20046;-79
2021/06/22 03:04:16;;;;;;;39.88;22.15;;;12.30;99.90;;;;;;4998793;28;20045;-84
2021/06/22 03:06:43;;;;;;;38.50;21.88;;;12.30;99.90;;;;;;4993059;28;20434;-83
2021/06/22 03:09:20;;;;;;;37.38;21.10;;;12.30;99.90;;;;;;5004747;28;20043;-82
2021/06/22 03:12:01;;;;;;;36.17;22.65;;;12.30;99.90;;;;;;5000640;28;20116;-82
2021/06/22 03:14:48;;;;;;;41.40;23.17;;;12.20;99.90;;;;;;4978895;28;20140;-82
2021/06/22 03:17:24;;;;;;;40.15;22.98;;;12.20;99.90;;;;;;5012694;28;20057;-80
2021/06/22 03:19:53;;;;;;;44.05;24.58;;;12.20;99.90;;;;;;4994719;28;20072;-83
2021/06/22 03:22:24;;;;;;;43.13;24.52;;;12.10;99.90;;;;;;4995456;28;20364;-82
2021/06/22 03:24:52;;;;;;;42.83;22.65;;;12.10;99.90;;;;;;4977144;28;20042;-81
2021/06/22 03:27:21;;;;;;;44.53;25.98;;;12.10;99.90;;;;;;4969944;28;20043;-81
2021/06/22 03:30:10;;;;;;;46.90;25.02;;;12.10;99.90;;;;;;5002470;28;20073;-80
2021/06/22 03:32:38;;;;;;;42.47;24.27;;;12.20;99.90;;;;;;4982811;28;20046;-79
2021/06/22 03:35:09;;;;;;;43.65;24.27;;;12.20;99.90;;;;;;4976283;28;20734;-82
2021/06/22 03:37:36;;;;;;;42.20;23.10;;;12.20;99.90;;;;;;4991606;28;20500;-82
2021/06/22 03:40:05;;;;;;;46.22;25.60;;;12.20;99.90;;;;;;5009132;28;20149;-82
2021/06/22 03:42:36;;;;;;;48.35;23.52;;;12.30;99.90;;;;;;5007802;28;20042;-82
2021/06/22 03:45:07;;;;;;;37.60;21.85;;;12.30;99.90;;;;;;4996700;28;20056;-81
2021/06/22 03:47:34;;;;;;;40.33;23.38;;;12.20;99.90;;;;;;5003572;28;20099;-80
2021/06/22 03:50:05;;;;;;;46.45;23.90;;;12.10;99.90;;;;;;4988863;28;20065;-80
2021/06/22 03:52:34;;;;;;;39.35;21.88;;;12.10;99.90;;;;;;4975967;28;20068;-82
2021/06/22 03:55:25;;;;;;;38.28;21.88;;;12.00;99.90;;;;;;4976870;28;20132;-80
2021/06/22 03:58:01;;;;;;;40.63;22.25;;;12.00;99.90;;;;;;4989680;28;20584;-80
2021/06/22 04:00:35;;;;;;;45.03;23.65;;;12.00;99.90;;;;;;5006417;28;20052;-83
2021/06/22 04:03:09;;;;;;;46.55;23.05;;;11.90;99.90;;;;;;4989450;28;20042;-84
2021/06/22 04:05:40;;;;;;;45.78;23.75;;;12.00;99.90;;;;;;4990440;28;20042;-81
2021/06/22 04:08:28;;;;;;;39.00;22.73;;;12.10;99.90;;;;;;5002794;28;20054;-81
2021/06/22 04:11:00;;;;;;;36.40;19.95;;;12.00;99.90;;;;;;4990816;28;20101;-81
2021/06/22 04:13:27;;;;;;;48.58;25.05;;;12.00;99.90;;;;;;4976089;28;20080;-80
2021/06/22 04:16:05;;;;;;;53.40;25.38;;;12.10;99.90;;;;;;4993311;28;20042;-80
2021/06/22 04:18:32;;;;;;;45.28;24.30;;;12.20;99.90;;;;;;4976472;28;20061;-80
2021/06/22 04:21:06;;;;;;;40.15;23.00;;;12.20;99.90;;;;;;4991065;28;20049;-81
2021/06/22 04:23:44;;;;;;;43.33;23.92;;;12.20;99.90;;;;;;4988780;28;20042;-80
2021/06/22 04:26:15;;;;;;;54.55;25.45;;;12.20;99.90;;;;;;4984378;28;20122;-81
2021/06/22 04:28:42;;;;;;;47.33;25.67;;;12.00;99.90;;;;;;5003409;28;20047;-81
2021/06/22 04:31:11;;;;;;;42.33;25.17;;;12.10;99.90;;;;;;4955458;28;20042;-81
2021/06/22 04:33:38;;;;;;;41.00;26.75;;;12.00;99.90;;;;;;5004225;28;20061;-80
2021/06/22 04:36:06;;;;;;;47.92;26.15;;;12.00;99.90;;;;;;5004616;28;20050;-80
2021/06/22 04:38:32;;;;;;;44.22;24.17;;;12.00;99.90;;;;;;5006112;28;20406;-81
2021/06/22 04:40:59;;;;;;;43.78;24.73;;;11.90;99.90;;;;;;4989038;28;20085;-79
2021/06/22 04:43:26;;;;;;;49.15;25.38;;;12.00;99.90;;;;;;4981577;28;20057;-79
2021/06/22 04:45:53;;;;;;;39.67;22.40;;;12.10;99.90;;;;;;5011231;28;20040;-82
2021/06/22 04:48:20;;;;;;;45.95;24.35;;;12.00;99.90;;;;;;5003867;28;20057;-81
2021/06/22 04:50:47;;;;;;;42.47;22.92;;;12.00;99.90;;;;;;4987194;28;20074;-81
2021/06/22 04:53:14;;;;;;;38.28;21.17;;;12.10;99.90;;;;;;4989033;28;20066;-80
2021/06/22 04:55:47;;;;;;;37.17;22.63;;;12.20;99.90;;;;;;4973152;28;20051;-80
2021/06/22 04:58:17;;;;;;;28.38;20.10;;;12.30;99.90;;;;;;4995001;28;20475;-80
2021/06/22 05:00:43;;;;;;;39.33;23.08;;;12.30;99.90;;;;;;4977129;28;20125;-78
2021/06/22 05:03:10;;;;;;;28.58;18.45;;;12.30;99.90;;;;;;5017138;28;20137;-80
2021/06/22 05:05:37;;;;;;;31.05;18.85;;;12.50;99.90;;;;;;4990625;28;20050;-81
2021/06/22 05:08:04;;;;;;;33.75;20.27;;;12.40;99.90;;;;;;4989617;28;20125;-81
2021/06/22 05:10:31;;;;;;;31.80;18.90;;;12.50;99.90;;;;;;4995054;28;20568;-80
2021/06/22 05:12:58;;;;;;;38.20;21.60;;;12.50;99.90;;;;;;4996525;28;20468;-82
2021/06/22 05:15:25;;;;;;;30.67;20.60;;;12.40;99.90;;;;;;5012413;28;20046;-81
2021/06/22 05:17:52;;;;;;;42.78;20.95;;;12.40;99.90;;;;;;5010424;28;20041;-81
2021/06/22 05:20:19;;;;;;;35.42;20.02;;;12.40;99.90;;;;;;5000404;28;20053;-82
2021/06/22 05:22:46;;;;;;;37.92;21.77;;;12.30;99.90;;;;;;4998098;28;20046;-81
2021/06/22 05:25:14;;;;;;;36.28;22.85;;;12.30;99.90;;;;;;4991451;28;20061;-82
2021/06/22 05:27:40;;;;;;;32.20;19.77;;;12.40;99.90;;;;;;4995146;28;20294;-82
2021/06/22 05:30:08;;;;;;;40.83;22.58;;;12.50;99.90;;;;;;5006117;28;20480;-80
2021/06/22 05:32:35;;;;;;;36.33;19.98;;;12.70;99.90;;;;;;5001437;28;20408;-81
2021/06/22 05:35:02;;;;;;;33.17;20.20;;;12.70;99.90;;;;;;4981420;28;20045;-81
2021/06/22 05:37:30;;;;;;;36.65;20.15;;;12.70;99.90;;;;;;4997547;28;20065;-81
2021/06/22 05:40:00;;;;;;;38.95;19.60;;;12.80;99.90;;;;;;4995153;28;20109;-84
2021/06/22 05:42:30;;;;;;;38.33;19.40;;;12.90;99.90;;;;;;4992970;28;20145;-83
2021/06/22 05:44:56;;;;;;;26.05;16.90;;;12.60;99.90;;;;;;5004022;28;20048;-83
2021/06/22 05:47:24;;;;;;;32.10;18.90;;;12.70;99.90;;;;;;5002226;28;20045;-82
2021/06/22 05:49:51;;;;;;;28.90;17.00;;;12.80;99.90;;;;;;5006807;28;20560;-82
2021/06/22 05:52:18;;;;;;;25.98;17.05;;;13.00;99.90;;;;;;5010790;28;20050;-81
2021/06/22 05:54:47;;;;;;;43.45;18.73;;;13.00;99.90;;;;;;4979226;28;20572;-83
2021/06/22 05:57:14;;;;;;;34.83;18.73;;;12.90;99.90;;;;;;4988217;28;20473;-82
2021/06/22 05:59:40;;;;;;;26.20;18.70;;;12.80;99.90;;;;;;4976945;28;20035;-81
2021/06/22 06:02:07;;;;;;;35.75;19.95;;;12.80;99.90;;;;;;4988614;28;20142;-80
2021/06/22 06:04:34;;;;;;;38.53;21.25;;;12.60;99.90;;;;;;5012500;28;20105;-81
2021/06/22 06:07:02;;;;;;;32.33;18.67;;;12.60;99.90;;;;;;4993989;28;20113;-82
2021/06/22 06:09:29;;;;;;;35.03;18.05;;;12.70;99.90;;;;;;4994790;28;20042;-82
2021/06/22 06:11:56;;;;;;;32.60;17.17;;;12.80;99.90;;;;;;5010570;28;20057;-82
2021/06/22 06:14:23;;;;;;;29.90;18.20;;;12.90;99.90;;;;;;4977887;28;20046;-80
2021/06/22 06:16:50;;;;;;;32.15;17.08;;;13.00;99.90;;;;;;5017530;28;20061;-79
2021/06/22 06:19:17;;;;;;;26.20;15.73;;;13.00;99.90;;;;;;4997413;28;20070;-81
2021/06/22 06:21:45;;;;;;;25.10;14.63;;;12.90;99.90;;;;;;5010878;28;20060;-80
2021/06/22 06:24:13;;;;;;;25.30;13.63;;;12.90;99.90;;;;;;4989723;28;20054;-82
2021/06/22 06:29:48;;;;;;;23.38;12.55;;;12.70;99.90;;;;;;4991320;28;20088;-79
2021/06/22 06:32:15;;;;;;;25.88;14.02;;;12.60;99.90;;;;;;4982418;28;20053;-80
2021/06/22 06:34:42;;;;;;;23.92;14.07;;;12.60;99.90;;;;;;4993272;28;20046;-81
2021/06/22 06:37:09;;;;;;;19.02;12.48;;;12.70;99.90;;;;;;5001585;28;20066;-80
2021/06/22 06:39:36;;;;;;;28.90;13.82;;;12.70;99.90;;;;;;5007657;28;20057;-80
2021/06/22 06:42:04;;;;;;;21.60;14.00;;;12.70;99.90;;;;;;4983718;28;20049;-81
2021/06/22 06:44:31;;;;;;;21.27;12.95;;;12.90;99.90;;;;;;4994981;28;20061;-80
2021/06/22 06:46:58;;;;;;;22.40;13.40;;;12.90;99.90;;;;;;4996707;28;20046;-80
2021/06/22 06:49:25;;;;;;;25.13;14.07;;;12.70;99.90;;;;;;4994225;28;20042;-82
2021/06/22 06:51:52;;;;;;;19.55;13.25;;;12.80;99.90;;;;;;4994683;28;20151;-80
2021/06/22 06:54:18;;;;;;;19.73;13.35;;;12.90;99.90;;;;;;5014146;28;20118;-80
2021/06/22 06:56:48;;;;;;;26.08;15.35;;;12.70;99.90;;;;;;4997512;28;20045;-80
2021/06/22 06:59:19;;;;;;;24.60;15.20;;;12.80;99.90;;;;;;5017164;28;20046;-80
2021/06/22 07:01:47;;;;;;;23.88;14.15;;;12.90;99.90;;;;;;5003290;28;20049;-80
2021/06/22 07:04:14;;;;;;;23.70;13.65;;;13.00;99.90;;;;;;5012642;28;20046;-81
2021/06/22 07:06:40;;;;;;;20.65;13.07;;;13.10;99.90;;;;;;4994824;28;20113;-80
2021/06/22 07:09:10;;;;;;;24.92;14.23;;;13.20;99.90;;;;;;5002300;28;20069;-80
2021/06/22 07:11:37;;;;;;;18.88;13.30;;;13.30;99.90;;;;;;4992908;28;20063;-82
2021/06/22 07:14:04;;;;;;;20.77;13.30;;;13.20;99.90;;;;;;5003254;28;20042;-79
2021/06/22 07:16:31;;;;;;;22.33;13.55;;;13.10;99.90;;;;;;5041924;28;20050;-79
2021/06/22 07:18:58;;;;;;;24.05;13.93;;;12.90;99.90;;;;;;5013201;28;20091;-80
2021/06/22 07:21:25;;;;;;;23.95;13.43;;;12.80;99.90;;;;;;4995114;28;20129;-82
2021/06/22 07:23:52;;;;;;;23.92;13.57;;;12.90;99.90;;;;;;4995425;28;20046;-81
2021/06/22 07:26:36;;;;;;;29.65;13.82;;;12.90;99.90;;;;;;5011456;28;20046;-83
2021/06/22 07:29:04;;;;;;;23.85;12.63;;;12.90;99.90;;;;;;4995196;28;20491;-79
2021/06/22 07:31:32;;;;;;;20.67;12.25;;;13.00;99.90;;;;;;4966416;28;20048;-80
2021/06/22 07:33:59;;;;;;;18.50;11.63;;;12.90;99.90;;;;;;5008590;28;20043;-79
2021/06/22 07:36:26;;;;;;;25.90;13.93;;;12.90;99.90;;;;;;4974819;28;20051;-83
2021/06/22 07:38:53;;;;;;;18.73;12.82;;;13.10;99.90;;;;;;4978653;28;20051;-83
2021/06/22 07:41:21;;;;;;;20.98;11.90;;;13.30;99.90;;;;;;4958657;28;20666;-81
2021/06/22 07:43:47;;;;;;;18.38;12.30;;;13.40;99.90;;;;;;4958532;28;20051;-83
2021/06/22 07:46:14;;;;;;;19.13;12.38;;;13.60;99.90;;;;;;4957977;28;20050;-84
2021/06/22 07:48:41;;;;;;;17.00;10.57;;;13.70;99.90;;;;;;4977990;28;20050;-83
2021/06/22 07:51:08;;;;;;;20.80;11.48;;;13.80;99.90;;;;;;4985633;28;20074;-80
2021/06/22 07:53:35;;;;;;;16.35;11.38;;;13.40;99.90;;;;;;5015535;28;20069;-80
2021/06/22 07:56:02;;;;;;;17.75;13.35;;;13.30;99.90;;;;;;4963039;28;20041;-81
2021/06/22 07:58:29;;;;;;;16.67;10.18;;;13.40;99.90;;;;;;4997591;28;20073;-81
2021/06/22 08:00:56;;;;;;;18.30;11.23;;;13.40;99.90;;;;;;5025529;28;20069;-80
2021/06/22 08:03:24;;;;;;;18.58;9.70;;;13.50;99.90;;;;;;5005765;28;20655;-81
2021/06/22 08:05:54;;;;;;;16.73;10.15;;;13.70;99.90;;;;;;5013681;28;20389;-81
2021/06/22 08:08:22;;;;;;;22.38;11.00;;;13.60;99.90;;;;;;5013090;28;20443;-80
2021/06/22 08:10:52;;;;;;;16.83;11.50;;;13.80;99.90;;;;;;4978835;28;20062;-81
2021/06/22 08:13:20;;;;;;;17.45;12.70;;;14.00;99.90;;;;;;4990036;28;20046;-81
2021/06/22 08:15:48;;;;;;;14.27;9.77;;;14.20;99.90;;;;;;4993231;28;20386;-81
2021/06/22 08:18:15;;;;;;;15.68;10.73;;;14.20;99.90;;;;;;5010099;28;20049;-78
2021/06/22 08:20:44;;;;;;;19.65;11.52;;;13.90;99.90;;;;;;4990542;28;20045;-78
2021/06/22 08:23:11;;;;;;;18.52;11.55;;;13.60;99.90;;;;;;4992529;28;20054;-79
2021/06/22 08:25:38;;;;;;;16.63;12.13;;;13.70;99.90;;;;;;4994197;28;20065;-80
2021/06/22 08:28:06;;;;;;;22.90;11.65;;;14.00;99.90;;;;;;5000610;28;20106;-81
2021/06/22 08:30:34;;;;;;;17.50;10.65;;;14.30;99.90;;;;;;4998344;28;20067;-79
2021/06/22 08:33:02;;;;;;;15.77;10.43;;;14.60;99.90;;;;;;5017699;28;20053;-78
2021/06/22 08:35:31;;;;;;;18.92;10.75;;;14.90;99.90;;;;;;4996006;28;20101;-79
2021/06/22 08:38:00;;;;;;;19.00;10.57;;;14.90;99.90;;;;;;4977747;28;20050;-81
2021/06/22 08:40:27;;;;;;;15.05;10.40;;;15.20;99.90;;;;;;4963148;28;20060;-79
2021/06/22 08:42:55;;;;;;;14.65;10.38;;;15.60;99.90;;;;;;5012712;28;20062;-80
2021/06/22 08:45:22;;;;;;;15.95;11.68;;;16.00;99.90;;;;;;5001741;28;20034;-81
2021/06/22 08:47:50;;;;;;;11.38;10.27;;;16.10;99.90;;;;;;4992304;28;20068;-80
2021/06/22 08:50:18;;;;;;;13.50;11.88;;;16.00;99.90;;;;;;4992597;28;20058;-79
2021/06/22 08:52:46;;;;;;;13.05;11.07;;;15.50;99.90;;;;;;4989623;28;20138;-80
2021/06/22 08:55:26;;;;;;;14.10;10.25;;;15.30;99.90;;;;;;4985165;28;20138;-81
2021/06/22 08:58:14;;;;;;;13.00;10.40;;;15.20;99.90;;;;;;4992557;28;20046;-80
2021/06/22 09:00:45;;;;;;;15.95;11.88;;;15.20;99.90;;;;;;4987081;28;20041;-79
2021/06/22 09:03:15;;;;;;;12.55;11.25;;;14.90;99.90;;;;;;5007098;28;20046;-80
2021/06/22 09:05:45;;;;;;;12.57;10.55;;;14.80;99.90;;;;;;5001768;28;20052;-79
2021/06/22 09:08:20;;;;;;;16.90;11.10;;;14.80;99.90;;;;;;5012468;28;20049;-81
2021/06/22 09:10:49;;;;;;;12.27;9.88;;;14.70;99.90;;;;;;4998394;28;20047;-79
2021/06/22 09:13:19;;;;;;;13.60;9.05;;;14.70;99.90;;;;;;5027815;28;20042;-80
2021/06/22 09:15:49;;;;;;;13.40;10.55;;;14.40;99.90;;;;;;5013079;28;20068;-81
2021/06/22 09:18:37;;;;;;;10.55;9.38;;;14.10;99.90;;;;;;4996649;28;20045;-80
2021/06/22 09:21:07;;;;;;;11.07;9.10;;;14.10;99.90;;;;;;4998926;28;20046;-79
2021/06/22 09:23:36;;;;;;;10.85;9.65;;;14.20;99.90;;;;;;4998992;28;20057;-81
2021/06/22 09:26:15;;;;;;;16.30;10.05;;;14.20;99.90;;;;;;5022340;28;20093;-80
2021/06/22 09:28:42;;;;;;;15.27;9.68;;;14.50;99.90;;;;;;5012220;28;20104;-81
2021/06/22 09:31:12;;;;;;;16.48;9.73;;;14.60;99.90;;;;;;5024470;28;20059;-82
2021/06/22 09:33:41;;;;;;;12.32;9.27;;;14.70;99.90;;;;;;5004196;28;20148;-81
2021/06/22 09:36:13;;;;;;;15.55;9.98;;;14.90;99.90;;;;;;5011288;28;20065;-80
2021/06/22 09:38:42;;;;;;;12.68;9.48;;;15.00;99.90;;;;;;5010322;28;20046;-81
2021/06/22 09:41:16;;;;;;;12.98;9.40;;;15.10;99.90;;;;;;4994243;28;20060;-81
2021/06/22 09:43:46;;;;;;;10.10;9.10;;;15.00;99.90;;;;;;5012461;28;20053;-81
2021/06/22 09:46:14;;;;;;;10.90;9.60;;;15.00;99.90;;;;;;4971175;28;20122;-82
2021/06/22 09:48:51;;;;;;;11.90;9.02;;;14.90;99.90;;;;;;4988904;28;20077;-81
2021/06/22 09:51:22;;;;;;;11.98;9.57;;;15.10;99.90;;;;;;4983193;28;20089;-80
2021/06/22 09:53:49;;;;;;;16.70;10.23;;;15.20;99.90;;;;;;4995229;28;20042;-80
2021/06/22 09:56:22;;;;;;;10.88;9.60;;;15.20;99.90;;;;;;5010135;28;20038;-82
2021/06/22 09:58:49;;;;;;;12.40;10.20;;;15.00;99.90;;;;;;4994208;28;20596;-81
2021/06/22 10:01:52;;;;;;;12.75;10.23;;;15.10;99.90;;;;;;5001011;28;20061;-79
2021/06/22 10:04:21;;;;;;;11.93;10.73;;;15.00;99.90;;;;;;4950639;28;20502;-82
2021/06/22 10:06:57;;;;;;;13.50;10.40;;;14.90;99.90;;;;;;5029068;28;20057;-79
2021/06/22 10:09:29;;;;;;;13.82;10.45;;;15.30;99.90;;;;;;5028670;28;20053;-80
2021/06/22 10:12:08;;;;;;;15.95;10.75;;;15.20;99.90;;;;;;5026958;28;20559;-82
2021/06/22 10:14:43;;;;;;;12.98;10.38;;;15.20;99.90;;;;;;4990275;28;20054;-79
2021/06/22 10:17:18;;;;;;;11.75;10.57;;;15.40;99.90;;;;;;4972161;28;20567;-81
2021/06/22 10:19:47;;;;;;;13.02;11.15;;;14.90;99.90;;;;;;4989228;28;20061;-80
2021/06/22 10:22:16;;;;;;;11.80;10.35;;;14.90;99.90;;;;;;5007654;28;20050;-82
2021/06/22 10:24:46;;;;;;;12.60;10.27;;;14.80;99.90;;;;;;4993103;28;20112;-81
2021/06/22 10:27:16;;;;;;;11.25;10.18;;;15.00;99.90;;;;;;5012809;28;20042;-82
2021/06/22 10:29:45;;;;;;;13.10;10.38;;;14.90;99.90;;;;;;4981389;28;20042;-80
2021/06/22 10:32:14;;;;;;;11.32;10.30;;;15.10;99.90;;;;;;5036388;28;20045;-79
2021/06/22 10:34:46;;;;;;;11.15;10.13;;;15.00;99.90;;;;;;4998493;28;20050;-80
2021/06/22 10:37:22;;;;;;;12.60;10.90;;;14.80;99.90;;;;;;4994504;28;20050;-81
2021/06/22 10:40:02;;;;;;;14.27;11.38;;;14.70;99.90;;;;;;4979159;28;20497;-82
2021/06/22 10:42:49;;;;;;;13.20;11.25;;;14.50;99.90;;;;;;4959911;28;20039;-81
2021/06/22 10:45:20;;;;;;;15.70;11.05;;;14.50;99.90;;;;;;4976862;28;20197;-82
2021/06/22 10:47:49;;;;;;;14.77;10.75;;;14.50;99.90;;;;;;5013742;28;20084;-81
2021/06/22 10:50:19;;;;;;;14.18;10.57;;;14.50;99.90;;;;;;4994456;28;20137;-81
2021/06/22 10:52:55;;;;;;;12.25;10.50;;;14.60;99.90;;;;;;5012954;28;20026;-81
2021/06/22 10:55:45;;;;;;;13.45;11.68;;;14.70;99.90;;;;;;4993056;28;20058;-81
2021/06/22 10:58:14;;;;;;;12.30;10.82;;;14.80;99.90;;;;;;5001869;28;20046;-80
2021/06/22 11:00:48;;;;;;;15.10;11.65;;;14.80;99.90;;;;;;5014464;28;20060;-81
2021/06/22 11:03:33;;;;;;;14.05;10.13;;;14.70;99.90;;;;;;5008466;28;20497;-81
2021/06/22 11:06:10;;;;;;;12.98;11.00;;;14.70;99.90;;;;;;4994952;28;20044;-83
2021/06/22 11:08:42;;;;;;;14.93;10.55;;;14.60;99.90;;;;;;4996034;28;20140;-80
2021/06/22 11:11:09;;;;;;;15.93;11.43;;;14.90;99.90;;;;;;5004597;28;20094;-81
2021/06/22 11:14:06;;;;;;;15.40;10.98;;;15.00;99.90;;;;;;5008567;28;20038;-80
2021/06/22 11:16:44;;;;;;;13.40;11.02;;;15.20;99.90;;;;;;4983047;28;20074;-80
2021/06/22 11:19:13;;;;;;;18.73;13.23;;;15.20;99.90;;;;;;4975098;28;20053;-80
2021/06/22 11:21:42;;;;;;;14.65;12.02;;;15.50;99.90;;;;;;4975951;28;20066;-81
2021/06/22 11:24:15;;;;;;;14.60;13.00;;;15.80;99.90;;;;;;4967471;28;20047;-81
2021/06/22 11:27:04;;;;;;;14.35;12.10;;;16.00;99.90;;;;;;4967861;28;20050;-80
2021/06/22 11:29:31;;;;;;;16.40;12.55;;;16.00;99.90;;;;;;4994110;28;20627;-82
2021/06/22 11:32:01;;;;;;;13.23;12.02;;;16.10;99.90;;;;;;5019691;28;20105;-81
2021/06/22 11:34:32;;;;;;;15.70;12.10;;;16.00;99.90;;;;;;5000254;28;20049;-80
2021/06/22 11:37:05;;;;;;;15.27;11.57;;;16.20;99.90;;;;;;4995651;28;20056;-81
2021/06/22 11:39:38;;;;;;;12.38;11.43;;;16.40;99.90;;;;;;4978715;28;20505;-79
2021/06/22 11:42:17;;;;;;;13.13;11.73;;;16.50;99.90;;;;;;4993674;28;20053;-81
2021/06/22 11:45:18;;;;;;;12.77;11.35;;;16.50;99.90;;;;;;4994851;28;20042;-82
2021/06/22 11:47:44;;;;;;;13.32;11.70;;;16.70;99.90;;;;;;4997824;28;20046;-81
2021/06/22 11:50:12;;;;;;;12.25;11.25;;;16.70;99.90;;;;;;4977895;28;20058;-79
2021/06/22 11:52:41;;;;;;;13.65;11.60;;;16.40;99.90;;;;;;4994573;28;20045;-80
2021/06/22 11:55:15;;;;;;;11.60;10.57;;;16.40;99.90;;;;;;5007487;28;20081;-81
2021/06/22 11:57:49;;;;;;;12.57;11.63;;;16.60;99.90;;;;;;4994811;28;20414;-82
2021/06/22 12:00:18;;;;;;;12.40;11.30;;;16.70;99.90;;;;;;4979351;28;20497;-81
2021/06/22 12:03:09;;;;;;;12.68;11.70;;;16.60;99.90;;;;;;5009150;28;20044;-81
2021/06/22 12:05:37;;;;;;;12.63;11.52;;;16.40;99.90;;;;;;4972418;28;20074;-79
2021/06/22 12:08:07;;;;;;;12.75;11.43;;;16.50;99.90;;;;;;4990011;28;20430;-80
2021/06/22 12:10:48;;;;;;;12.02;11.23;;;16.80;99.90;;;;;;4959621;28;20042;-81
2021/06/22 12:13:30;;;;;;;12.57;11.50;;;16.80;99.90;;;;;;4996982;28;20144;-81
2021/06/22 12:15:57;;;;;;;12.70;11.60;;;17.20;99.90;;;;;;4997498;28;20042;-82
2021/06/22 12:18:32;;;;;;;12.73;11.73;;;17.00;99.90;;;;;;5011643;28;20487;-80
2021/06/22 12:21:01;;;;;;;13.20;12.20;;;16.90;99.90;;;;;;4990001;28;20051;-81
2021/06/22 12:23:29;;;;;;;12.75;11.48;;;16.70;99.90;;;;;;4978784;28;20054;-79
2021/06/22 12:25:56;;;;;;;12.43;11.57;;;16.80;99.90;;;;;;4999261;28;20050;-81
2021/06/22 12:28:24;;;;;;;13.98;12.68;;;17.00;99.90;;;;;;4996658;28;20050;-81
2021/06/22 12:30:59;;;;;;;14.02;12.80;;;17.10;99.90;;;;;;5000491;28;20092;-79
2021/06/22 12:33:46;;;;;;;13.63;12.43;;;17.20;99.90;;;;;;5006069;28;20058;-80
2021/06/22 12:36:19;;;;;;;13.38;12.18;;;17.10;99.90;;;;;;4987686;28;20071;-83
2021/06/22 12:38:55;;;;;;;12.65;11.75;;;17.00;99.90;;;;;;4978455;28;20513;-81
2021/06/22 12:41:29;;;;;;;12.88;11.68;;;17.00;99.90;;;;;;4971298;28;20073;-82
2021/06/22 12:43:56;;;;;;;13.52;11.85;;;17.10;99.90;;;;;;4993963;28;20053;-82
2021/06/22 12:46:26;;;;;;;13.35;12.15;;;17.30;99.90;;;;;;5009131;28;20096;-79
2021/06/22 12:49:09;;;;;;;13.70;12.63;;;16.50;99.90;;;;;;4995670;28;20046;-80